createdAt,value
2022-11-29T00:04:59.010Z,20.15
2022-11-29T00:10:01.162Z,21.17
2022-11-29T00:15:03.443Z,21.00
2022-11-29T00:20:06.094Z,23.08
2022-11-29T00:25:08.018Z,23.23
2022-11-29T00:30:10.062Z,22.40
2022-11-29T00:35:12.359Z,24.33
2022-11-29T00:40:14.478Z,25.63
2022-11-29T00:45:16.360Z,24.98
2022-11-29T00:50:18.040Z,26.00
2022-11-29T00:55:19.719Z,26.40
2022-11-29T01:00:21.540Z,28.02
2022-11-29T01:05:23.218Z,27.98
2022-11-29T01:10:25.949Z,28.75
2022-11-29T01:15:27.762Z,28.42
2022-11-29T01:20:29.481Z,29.05
2022-11-29T01:25:32.133Z,28.70
2022-11-29T01:30:33.941Z,29.08
2022-11-29T01:35:35.607Z,29.65
2022-11-29T01:40:37.299Z,29.63
2022-11-29T01:45:39.738Z,31.08
2022-11-29T01:50:42.561Z,30.92
2022-11-29T01:55:50.691Z,33.13
2022-11-29T02:00:52.645Z,31.88
2022-11-29T02:05:55.246Z,33.03
2022-11-29T02:11:12.089Z,34.13
2022-11-29T02:16:24.600Z,34.38
2022-11-29T02:21:41.404Z,33.15
2022-11-29T02:27:04.894Z,36.85
2022-11-29T02:32:41.829Z,36.47
2022-11-29T02:42:56.861Z,36.60
2022-11-29T02:48:31.047Z,37.03
2022-11-29T02:53:41.900Z,34.92
2022-11-29T02:58:49.330Z,37.45
2022-11-29T03:04:02.420Z,36.92
2022-11-29T03:09:27.846Z,38.95
2022-11-29T03:14:55.829Z,38.10
2022-11-29T03:20:21.280Z,39.72
2022-11-29T03:25:29.683Z,39.35
2022-11-29T03:30:34.499Z,40.72
2022-11-29T03:35:54.432Z,41.45
2022-11-29T03:41:17.860Z,40.97
2022-11-29T03:46:46.579Z,39.70
2022-11-29T03:52:16.180Z,40.20
2022-11-29T03:57:25.607Z,41.92
2022-11-29T04:02:50.103Z,43.53
2022-11-29T04:08:01.006Z,43.03
2022-11-29T04:13:35.492Z,42.50
2022-11-29T04:18:57.110Z,42.58
2022-11-29T04:24:07.549Z,40.90
2022-11-29T04:29:27.974Z,39.78
2022-11-29T04:34:44.908Z,39.88
2022-11-29T04:45:30.654Z,36.33
2022-11-29T04:50:38.130Z,40.47
2022-11-29T04:55:56.787Z,39.20
2022-11-29T05:01:33.109Z,38.65
2022-11-29T05:07:09.036Z,40.00
2022-11-29T05:12:10.800Z,39.63
2022-11-29T05:17:29.918Z,36.30
2022-11-29T05:23:04.453Z,38.97
2022-11-29T05:28:21.388Z,35.80
2022-11-29T05:34:01.399Z,35.67
2022-11-29T05:39:14.769Z,32.78
2022-11-29T05:44:27.372Z,33.55
2022-11-29T05:49:38.606Z,34.47
2022-11-29T05:55:04.518Z,31.08
2022-11-29T06:00:07.828Z,31.63
2022-11-29T06:05:40.338Z,33.85
2022-11-29T06:10:55.734Z,32.17
2022-11-29T06:16:16.206Z,31.73
2022-11-29T06:21:26.113Z,30.83
2022-11-29T06:26:58.916Z,29.75
2022-11-29T06:32:29.478Z,28.85
2022-11-29T06:37:42.908Z,27.83
2022-11-29T06:42:44.611Z,27.77
2022-11-29T06:47:52.838Z,28.25
2022-11-29T06:53:05.826Z,29.65
2022-11-29T06:58:19.824Z,28.90
2022-11-29T07:03:46.457Z,28.67
2022-11-29T07:08:56.893Z,30.35
2022-11-29T07:13:59.145Z,27.88
2022-11-29T07:19:28.731Z,28.10
2022-11-29T07:24:45.909Z,29.45
2022-11-29T07:30:09.610Z,30.17
2022-11-29T07:35:27.628Z,30.33
2022-11-29T07:40:50.544Z,30.13
2022-11-29T07:45:52.373Z,28.65
2022-11-29T07:50:56.221Z,29.52
2022-11-29T07:55:58.613Z,28.85
2022-11-29T08:01:00.389Z,28.48
2022-11-29T08:06:02.537Z,27.27
2022-11-29T08:11:10.549Z,25.73
2022-11-29T08:16:19.097Z,28.02
2022-11-29T08:21:20.977Z,25.70
2022-11-29T08:26:25.566Z,24.25
2022-11-29T08:31:31.994Z,24.98
2022-11-29T08:36:34.209Z,25.27
2022-11-29T08:41:36.088Z,22.42
2022-11-29T08:46:56.237Z,24.23
2022-11-29T08:52:18.347Z,22.60
2022-11-29T09:02:41.874Z,21.25
2022-11-29T09:07:43.921Z,21.73
2022-11-29T09:12:50.547Z,21.63
2022-11-29T09:17:52.535Z,21.50
2022-11-29T09:22:54.403Z,19.75
2022-11-29T09:27:58.937Z,19.88
2022-11-29T09:33:05.327Z,20.50
2022-11-29T09:38:07.057Z,19.23
2022-11-29T09:43:32.941Z,19.05
2022-11-29T09:48:53.140Z,18.27
2022-11-29T09:54:23.449Z,19.92
2022-11-29T09:59:35.781Z,18.30
2022-11-29T10:04:40.940Z,17.10
2022-11-29T10:09:48.873Z,18.77
2022-11-29T10:15:02.698Z,16.15
2022-11-29T10:20:13.018Z,17.70
2022-11-29T10:25:46.257Z,16.23
2022-11-29T10:30:48.555Z,15.10
2022-11-29T10:35:55.641Z,16.88
2022-11-29T10:41:15.919Z,15.98
2022-11-29T10:46:31.422Z,17.85
2022-11-29T10:51:35.008Z,17.67
2022-11-29T10:56:37.814Z,17.70
2022-11-29T11:01:44.054Z,19.52
2022-11-29T11:06:48.957Z,17.30
2022-11-29T11:11:57.615Z,18.27
2022-11-29T11:17:22.757Z,19.38
2022-11-29T11:22:26.399Z,18.33
2022-11-29T11:27:41.688Z,19.55
2022-11-29T11:33:22.833Z,19.40
2022-11-29T11:38:24.483Z,20.30
2022-11-29T11:43:26.390Z,20.20
2022-11-29T11:48:28.768Z,20.63
2022-11-29T11:53:36.496Z,19.35
2022-11-29T11:58:47.607Z,19.33
2022-11-29T12:04:06.553Z,20.80
2022-11-29T12:09:08.469Z,18.60
2022-11-29T12:14:22.028Z,19.23
2022-11-29T12:19:31.999Z,21.60
2022-11-29T12:24:53.005Z,19.88
2022-11-29T12:29:55.092Z,21.25
2022-11-29T12:35:25.147Z,21.20
2022-11-29T12:40:58.683Z,21.85
2022-11-29T12:46:12.738Z,22.17
2022-11-29T12:51:32.971Z,22.98
2022-11-29T12:56:41.809Z,23.95
2022-11-29T13:02:00.605Z,24.15
2022-11-29T13:07:10.933Z,23.70
2022-11-29T13:12:22.796Z,23.25
2022-11-29T13:17:37.742Z,22.63
2022-11-29T13:22:42.777Z,24.35
2022-11-29T13:27:58.261Z,23.30
2022-11-29T13:33:07.567Z,25.10
2022-11-29T13:38:09.191Z,23.80
2022-11-29T13:43:35.617Z,23.60
2022-11-29T13:48:48.876Z,24.13
2022-11-29T13:53:51.047Z,25.05
2022-11-29T13:58:54.662Z,26.52
2022-11-29T14:04:04.706Z,27.05
2022-11-29T14:09:24.931Z,27.52
2022-11-29T14:14:33.054Z,29.38
2022-11-29T14:19:36.734Z,29.38
2022-11-29T14:24:42.328Z,28.13
2022-11-29T14:29:49.973Z,29.38
2022-11-29T14:34:57.567Z,28.65
2022-11-29T14:40:04.320Z,30.40
2022-11-29T14:45:23.336Z,28.58
2022-11-29T14:50:43.080Z,29.48
2022-11-29T14:55:44.890Z,28.40
2022-11-29T15:00:49.568Z,28.23
2022-11-29T15:05:57.588Z,28.42
2022-11-29T15:11:05.804Z,28.13
2022-11-29T15:16:19.375Z,26.20
2022-11-29T15:21:32.718Z,26.17
2022-11-29T15:26:34.386Z,24.85
2022-11-29T15:31:36.508Z,26.20
2022-11-29T15:36:43.206Z,28.50
2022-11-29T15:41:45.014Z,27.58
2022-11-29T15:46:46.682Z,27.98
2022-11-29T15:51:53.330Z,25.58
2022-11-29T15:57:02.979Z,27.30
2022-11-29T16:02:17.145Z,27.42
2022-11-29T16:07:20.417Z,28.60
2022-11-29T16:12:22.172Z,29.00
2022-11-29T16:17:29.576Z,29.48
2022-11-29T16:22:32.204Z,29.95
2022-11-29T16:27:36.291Z,33.58
2022-11-29T16:32:43.064Z,30.90
2022-11-29T16:37:46.721Z,34.17
2022-11-29T16:43:23.934Z,32.42
2022-11-29T16:48:26.621Z,36.38
2022-11-29T16:53:43.390Z,32.72
2022-11-29T16:59:25.933Z,31.88
2022-11-29T17:04:11.126Z,31.38
2022-11-29T17:09:24.216Z,31.65
2022-11-29T17:14:25.943Z,32.42
2022-11-29T17:19:29.919Z,32.95
2022-11-29T17:24:31.770Z,32.83
2022-11-29T17:29:33.618Z,33.20
2022-11-29T17:34:35.253Z,33.72
2022-11-29T17:39:36.870Z,44.10
2022-11-29T17:44:38.510Z,32.88
2022-11-29T17:49:40.199Z,33.25
2022-11-29T17:54:41.834Z,34.03
2022-11-29T17:59:43.632Z,34.63
2022-11-29T18:04:45.475Z,32.58
2022-11-29T18:09:48.487Z,34.63
2022-11-29T18:14:50.893Z,35.92
2022-11-29T18:19:52.528Z,33.38
2022-11-29T18:25:05.389Z,34.88
2022-11-29T18:30:16.335Z,36.03
2022-11-29T18:35:17.971Z,32.42
2022-11-29T18:40:20.125Z,35.25
2022-11-29T18:45:21.755Z,33.72
2022-11-29T18:50:23.474Z,34.63
2022-11-29T18:55:26.210Z,34.58
2022-11-29T19:00:27.854Z,35.30
2022-11-29T19:05:29.519Z,33.78
2022-11-29T19:10:31.370Z,34.00
2022-11-29T19:15:33.185Z,33.45
2022-11-29T19:20:34.960Z,33.28
2022-11-29T19:25:36.848Z,34.33
2022-11-29T19:30:38.702Z,34.22
2022-11-29T19:35:40.557Z,34.08
2022-11-29T19:40:42.307Z,33.75
2022-11-29T19:45:44.099Z,35.38
2022-11-29T19:50:46.359Z,34.97
2022-11-29T19:55:48.062Z,35.58
2022-11-29T20:00:49.831Z,36.25
2022-11-29T20:05:55.529Z,34.67
2022-11-29T20:11:08.595Z,37.25
2022-11-29T20:16:13.006Z,35.78
2022-11-29T20:21:18.642Z,37.28
2022-11-29T20:26:20.724Z,38.28
2022-11-29T20:31:23.401Z,36.38
2022-11-29T20:36:55.265Z,38.30
2022-11-29T20:42:12.670Z,38.75
2022-11-29T20:47:17.902Z,39.35
2022-11-29T20:52:38.268Z,38.67
2022-11-29T20:57:40.083Z,40.00
2022-11-29T21:02:41.910Z,38.50
2022-11-29T21:07:45.369Z,41.72
2022-11-29T21:12:47.740Z,38.22
2022-11-29T21:17:49.901Z,38.92
2022-11-29T21:23:00.696Z,42.42
2022-11-29T21:28:02.914Z,39.78
2022-11-29T21:33:05.060Z,38.00
2022-11-29T21:38:14.784Z,37.60
2022-11-29T21:43:16.902Z,36.53
2022-11-29T21:48:37.715Z,37.08
2022-11-29T21:53:40.555Z,39.50
2022-11-29T21:58:42.249Z,38.60
2022-11-29T22:03:44.584Z,38.70
2022-11-29T22:08:48.635Z,37.25
2022-11-29T22:14:12.035Z,38.72
2022-11-29T22:19:18.931Z,38.22
2022-11-29T22:24:22.844Z,34.95
2022-11-29T22:29:25.355Z,35.05
2022-11-29T22:34:27.628Z,34.70
2022-11-29T22:39:29.291Z,36.22
2022-11-29T22:44:31.361Z,34.67
2022-11-29T22:49:33.393Z,37.08
2022-11-29T22:54:35.033Z,36.25
2022-11-29T22:59:36.669Z,36.58
2022-11-29T23:04:38.349Z,35.78
2022-11-29T23:09:40.008Z,34.15
2022-11-29T23:14:41.662Z,35.40
2022-11-29T23:19:43.295Z,35.45
2022-11-29T23:24:45.193Z,34.75
2022-11-29T23:29:47.029Z,33.50
2022-11-29T23:34:49.349Z,34.53
2022-11-29T23:39:51.061Z,33.92
2022-11-29T23:44:52.698Z,33.50
2022-11-29T23:49:54.369Z,33.63
2022-11-29T23:54:56.033Z,33.53
2022-11-29T23:59:58.092Z,34.17
